sensor_id;sensor_type;location;lat;lon;timestamp;P1;P2;P0
57037;PMS5003;59942;49.304;8.256;2022-12-07T00:01:16;37.00;37.00;33.60
57037;PMS5003;59942;49.304;8.256;2022-12-07T00:03:48;45.40;43.60;36.60
57037;PMS5003;59942;49.304;8.256;2022-12-07T00:06:17;41.20;34.40;33.00
57037;PMS5003;59942;49.304;8.256;2022-12-07T00:08:45;42.00;37.00;34.00
57037;PMS5003;59942;49.304;8.256;2022-12-07T00:11:14;44.00;43.40;36.60
57037;PMS5003;59942;49.304;8.256;2022-12-07T00:13:43;42.00;39.60;34.60
57037;PMS5003;59942;49.304;8.256;2022-12-07T00:16:20;41.60;39.60;34.00
57037;PMS5003;59942;49.304;8.256;2022-12-07T00:18:51;48.20;46.00;38.80
57037;PMS5003;59942;49.304;8.256;2022-12-07T00:21:20;45.40;42.60;36.60
57037;PMS5003;59942;49.304;8.256;2022-12-07T00:23:49;36.60;34.00;33.00
57037;PMS5003;59942;49.304;8.256;2022-12-07T00:28:50;41.60;36.00;33.00
57037;PMS5003;59942;49.304;8.256;2022-12-07T00:31:20;38.60;38.20;34.00
57037;PMS5003;59942;49.304;8.256;2022-12-07T00:33:49;37.40;37.00;33.60
57037;PMS5003;59942;49.304;8.256;2022-12-07T00:36:17;39.20;35.60;33.00
57037;PMS5003;59942;49.304;8.256;2022-12-07T00:38:52;42.40;41.20;36.00
57037;PMS5003;59942;49.304;8.256;2022-12-07T00:41:21;38.60;38.60;33.80
57037;PMS5003;59942;49.304;8.256;2022-12-07T00:43:49;37.40;36.00;33.00
57037;PMS5003;59942;49.304;8.256;2022-12-07T00:46:17;34.00;34.00;33.00
57037;PMS5003;59942;49.304;8.256;2022-12-07T00:48:47;37.60;34.80;33.00
57037;PMS5003;59942;49.304;8.256;2022-12-07T00:51:15;39.60;34.40;33.00
57037;PMS5003;59942;49.304;8.256;2022-12-07T00:53:43;38.80;38.40;34.00
57037;PMS5003;59942;49.304;8.256;2022-12-07T00:58:40;34.00;31.00;30.00
57037;PMS5003;59942;49.304;8.256;2022-12-07T01:01:08;33.40;33.40;31.60
57037;PMS5003;59942;49.304;8.256;2022-12-07T01:03:36;46.00;42.40;36.80
57037;PMS5003;59942;49.304;8.256;2022-12-07T01:06:04;38.60;36.60;33.00
57037;PMS5003;59942;49.304;8.256;2022-12-07T01:08:32;34.00;33.00;31.00
57037;PMS5003;59942;49.304;8.256;2022-12-07T01:11:00;48.40;45.40;39.00
57037;PMS5003;59942;49.304;8.256;2022-12-07T01:13:33;43.60;40.80;35.20
57037;PMS5003;59942;49.304;8.256;2022-12-07T01:16:02;41.00;37.80;34.00
57037;PMS5003;59942;49.304;8.256;2022-12-07T01:18:31;36.80;36.00;33.00
57037;PMS5003;59942;49.304;8.256;2022-12-07T01:21:00;49.80;47.80;40.20
57037;PMS5003;59942;49.304;8.256;2022-12-07T01:23:32;38.20;37.20;33.60
57037;PMS5003;59942;49.304;8.256;2022-12-07T01:26:02;52.80;48.00;40.00
57037;PMS5003;59942;49.304;8.256;2022-12-07T01:28:32;40.80;36.00;33.00
57037;PMS5003;59942;49.304;8.256;2022-12-07T01:33:30;46.20;44.80;38.00
57037;PMS5003;59942;49.304;8.256;2022-12-07T01:36:08;37.20;37.20;33.20
57037;PMS5003;59942;49.304;8.256;2022-12-07T01:38:43;35.80;33.80;32.20
57037;PMS5003;59942;49.304;8.256;2022-12-07T01:41:11;49.40;45.60;39.20
57037;PMS5003;59942;49.304;8.256;2022-12-07T01:44:07;45.80;42.40;36.80
57037;PMS5003;59942;49.304;8.256;2022-12-07T01:46:37;36.60;36.00;33.00
57037;PMS5003;59942;49.304;8.256;2022-12-07T01:49:06;33.60;33.00;30.40
57037;PMS5003;59942;49.304;8.256;2022-12-07T01:51:36;43.20;42.00;35.80
57037;PMS5003;59942;49.304;8.256;2022-12-07T01:54:06;36.00;36.00;33.00
57037;PMS5003;59942;49.304;8.256;2022-12-07T01:56:34;33.20;33.00;31.00
57037;PMS5003;59942;49.304;8.256;2022-12-07T01:59:02;44.20;41.60;35.80
57037;PMS5003;59942;49.304;8.256;2022-12-07T02:01:29;36.60;35.20;33.00
57037;PMS5003;59942;49.304;8.256;2022-12-07T02:03:56;41.40;40.40;34.40
57037;PMS5003;59942;49.304;8.256;2022-12-07T02:06:24;35.20;34.00;32.20
57037;PMS5003;59942;49.304;8.256;2022-12-07T02:08:52;38.20;38.20;33.80
57037;PMS5003;59942;49.304;8.256;2022-12-07T02:11:19;39.20;37.40;33.60
57037;PMS5003;59942;49.304;8.256;2022-12-07T02:13:48;40.40;40.40;35.20
57037;PMS5003;59942;49.304;8.256;2022-12-07T02:16:34;42.60;35.40;33.00
57037;PMS5003;59942;49.304;8.256;2022-12-07T02:28:02;34.80;34.80;33.00
57037;PMS5003;59942;49.304;8.256;2022-12-07T02:30:34;47.20;44.20;37.20
57037;PMS5003;59942;49.304;8.256;2022-12-07T02:33:24;43.00;39.60;34.80
57037;PMS5003;59942;49.304;8.256;2022-12-07T02:39:06;39.60;35.80;33.00
57037;PMS5003;59942;49.304;8.256;2022-12-07T02:41:45;41.20;40.00;34.40
57037;PMS5003;59942;49.304;8.256;2022-12-07T02:44:19;40.20;37.00;33.00
57037;PMS5003;59942;49.304;8.256;2022-12-07T02:46:51;40.60;40.00;34.80
57037;PMS5003;59942;49.304;8.256;2022-12-07T02:49:31;36.80;36.80;33.40
57037;PMS5003;59942;49.304;8.256;2022-12-07T02:51:58;41.60;39.40;34.80
57037;PMS5003;59942;49.304;8.256;2022-12-07T02:54:25;35.60;35.60;33.00
57037;PMS5003;59942;49.304;8.256;2022-12-07T03:08:00;42.00;39.40;34.80
57037;PMS5003;59942;49.304;8.256;2022-12-07T03:19:01;41.40;38.20;33.60
57037;PMS5003;59942;49.304;8.256;2022-12-07T03:21:34;50.80;45.80;39.00
57037;PMS5003;59942;49.304;8.256;2022-12-07T03:24:14;40.80;37.00;33.00
57037;PMS5003;59942;49.304;8.256;2022-12-07T03:26:47;52.00;44.60;38.20
57037;PMS5003;59942;49.304;8.256;2022-12-07T03:29:21;37.60;37.60;33.60
57037;PMS5003;59942;49.304;8.256;2022-12-07T03:31:56;43.60;41.60;35.80
57037;PMS5003;59942;49.304;8.256;2022-12-07T03:34:33;38.20;36.20;33.00
57037;PMS5003;59942;49.304;8.256;2022-12-07T03:37:26;55.80;48.20;42.00
57037;PMS5003;59942;49.304;8.256;2022-12-07T03:42:37;35.20;33.00;31.00
57037;PMS5003;59942;49.304;8.256;2022-12-07T03:45:05;38.40;36.20;33.00
57037;PMS5003;59942;49.304;8.256;2022-12-07T03:47:34;40.40;36.00;33.20
57037;PMS5003;59942;49.304;8.256;2022-12-07T03:50:31;37.00;36.00;33.00
57037;PMS5003;59942;49.304;8.256;2022-12-07T03:53:14;46.20;40.20;34.80
57037;PMS5003;59942;49.304;8.256;2022-12-07T03:55:46;30.00;30.00;30.00
57037;PMS5003;59942;49.304;8.256;2022-12-07T03:58:16;50.00;45.20;38.60
57037;PMS5003;59942;49.304;8.256;2022-12-07T04:00:45;42.60;36.00;33.00
57037;PMS5003;59942;49.304;8.256;2022-12-07T04:03:13;34.80;34.80;33.00
57037;PMS5003;59942;49.304;8.256;2022-12-07T04:05:40;52.80;45.20;39.00
57037;PMS5003;59942;49.304;8.256;2022-12-07T04:08:07;39.80;38.40;34.40
57037;PMS5003;59942;49.304;8.256;2022-12-07T04:10:34;37.00;36.80;33.00
57037;PMS5003;59942;49.304;8.256;2022-12-07T04:13:01;37.00;36.20;33.00
57037;PMS5003;59942;49.304;8.256;2022-12-07T04:15:28;41.00;39.80;34.40
57037;PMS5003;59942;49.304;8.256;2022-12-07T04:17:54;27.00;26.20;25.80
57037;PMS5003;59942;49.304;8.256;2022-12-07T04:20:21;39.40;39.00;34.00
57037;PMS5003;59942;49.304;8.256;2022-12-07T04:22:48;41.40;37.00;34.00
57037;PMS5003;59942;49.304;8.256;2022-12-07T04:25:15;44.20;43.40;36.00
57037;PMS5003;59942;49.304;8.256;2022-12-07T04:27:41;34.80;34.40;33.00
57037;PMS5003;59942;49.304;8.256;2022-12-07T04:30:08;49.40;46.60;39.60
57037;PMS5003;59942;49.304;8.256;2022-12-07T04:32:36;40.60;40.60;35.20
57037;PMS5003;59942;49.304;8.256;2022-12-07T04:35:03;37.00;36.00;33.00
57037;PMS5003;59942;49.304;8.256;2022-12-07T04:37:30;51.40;48.00;40.00
57037;PMS5003;59942;49.304;8.256;2022-12-07T04:39:57;36.00;36.00;33.00
57037;PMS5003;59942;49.304;8.256;2022-12-07T04:42:24;51.20;47.00;39.80
57037;PMS5003;59942;49.304;8.256;2022-12-07T04:44:51;43.80;41.40;34.80
57037;PMS5003;59942;49.304;8.256;2022-12-07T04:47:18;39.60;38.60;33.80
57037;PMS5003;59942;49.304;8.256;2022-12-07T04:49:45;41.60;38.80;34.40
57037;PMS5003;59942;49.304;8.256;2022-12-07T04:52:12;39.40;36.60;33.00
57037;PMS5003;59942;49.304;8.256;2022-12-07T04:54:38;41.80;38.60;33.80
57037;PMS5003;59942;49.304;8.256;2022-12-07T04:57:05;42.20;38.20;34.00
57037;PMS5003;59942;49.304;8.256;2022-12-07T04:59:32;43.80;43.60;37.40
57037;PMS5003;59942;49.304;8.256;2022-12-07T05:01:59;36.20;34.40;33.00
57037;PMS5003;59942;49.304;8.256;2022-12-07T05:04:25;40.00;37.80;33.80
57037;PMS5003;59942;49.304;8.256;2022-12-07T05:06:52;43.50;42.50;36.25
57037;PMS5003;59942;49.304;8.256;2022-12-07T05:09:19;41.40;41.40;35.80
57037;PMS5003;59942;49.304;8.256;2022-12-07T05:11:46;34.80;34.00;30.00
57037;PMS5003;59942;49.304;8.256;2022-12-07T05:14:14;33.60;33.60;31.00
57037;PMS5003;59942;49.304;8.256;2022-12-07T05:16:43;46.00;43.00;37.00
57037;PMS5003;59942;49.304;8.256;2022-12-07T05:19:11;45.60;41.60;35.60
57037;PMS5003;59942;49.304;8.256;2022-12-07T05:21:38;38.80;37.00;33.20
57037;PMS5003;59942;49.304;8.256;2022-12-07T05:24:06;38.60;38.60;34.00
57037;PMS5003;59942;49.304;8.256;2022-12-07T05:26:34;45.20;43.00;37.00
57037;PMS5003;59942;49.304;8.256;2022-12-07T05:29:01;39.40;37.40;33.60
57037;PMS5003;59942;49.304;8.256;2022-12-07T05:31:28;45.40;41.40;36.20
57037;PMS5003;59942;49.304;8.256;2022-12-07T05:33:55;45.20;43.60;37.00
57037;PMS5003;59942;49.304;8.256;2022-12-07T05:36:22;41.00;36.60;33.60
57037;PMS5003;59942;49.304;8.256;2022-12-07T05:38:49;39.40;36.80;33.60
57037;PMS5003;59942;49.304;8.256;2022-12-07T05:41:16;37.00;35.20;33.00
57037;PMS5003;59942;49.304;8.256;2022-12-07T05:44:04;46.20;44.80;38.20
57037;PMS5003;59942;49.304;8.256;2022-12-07T05:46:31;40.40;36.00;33.00
57037;PMS5003;59942;49.304;8.256;2022-12-07T05:48:58;41.00;41.00;35.20
57037;PMS5003;59942;49.304;8.256;2022-12-07T05:51:25;43.40;42.40;36.00
57037;PMS5003;59942;49.304;8.256;2022-12-07T05:53:52;38.40;35.00;33.00
57037;PMS5003;59942;49.304;8.256;2022-12-07T05:56:19;42.40;37.20;33.60
57037;PMS5003;59942;49.304;8.256;2022-12-07T05:58:46;39.00;36.00;33.00
57037;PMS5003;59942;49.304;8.256;2022-12-07T06:01:31;36.40;36.40;33.40
57037;PMS5003;59942;49.304;8.256;2022-12-07T06:11:20;38.60;36.60;33.00
57037;PMS5003;59942;49.304;8.256;2022-12-07T06:14:05;40.40;34.00;32.60
57037;PMS5003;59942;49.304;8.256;2022-12-07T06:16:31;38.60;38.60;33.80
57037;PMS5003;59942;49.304;8.256;2022-12-07T06:18:58;34.80;33.80;31.00
57037;PMS5003;59942;49.304;8.256;2022-12-07T06:21:25;39.80;39.60;34.80
57037;PMS5003;59942;49.304;8.256;2022-12-07T06:23:52;57.40;49.00;42.00
57037;PMS5003;59942;49.304;8.256;2022-12-07T06:26:19;40.00;39.00;34.40
57037;PMS5003;59942;49.304;8.256;2022-12-07T06:28:46;39.00;38.60;34.20
57037;PMS5003;59942;49.304;8.256;2022-12-07T06:31:13;38.40;37.80;33.60
57037;PMS5003;59942;49.304;8.256;2022-12-07T06:33:41;36.80;36.80;33.40
57037;PMS5003;59942;49.304;8.256;2022-12-07T06:36:08;38.80;37.40;33.60
57037;PMS5003;59942;49.304;8.256;2022-12-07T06:38:35;36.80;34.00;33.00
57037;PMS5003;59942;49.304;8.256;2022-12-07T06:41:02;46.20;42.00;36.00
57037;PMS5003;59942;49.304;8.256;2022-12-07T06:43:29;41.20;38.40;34.00
57037;PMS5003;59942;49.304;8.256;2022-12-07T06:45:56;49.00;45.80;39.00
57037;PMS5003;59942;49.304;8.256;2022-12-07T06:48:23;48.40;43.60;37.20
57037;PMS5003;59942;49.304;8.256;2022-12-07T06:50:50;39.40;37.00;33.20
57037;PMS5003;59942;49.304;8.256;2022-12-07T06:53:20;42.80;41.20;35.80
57037;PMS5003;59942;49.304;8.256;2022-12-07T06:55:48;43.40;39.80;34.00
57037;PMS5003;59942;49.304;8.256;2022-12-07T06:58:15;45.60;39.60;34.80
57037;PMS5003;59942;49.304;8.256;2022-12-07T07:00:43;42.60;38.20;33.80
57037;PMS5003;59942;49.304;8.256;2022-12-07T07:03:10;38.20;36.00;33.00
57037;PMS5003;59942;49.304;8.256;2022-12-07T07:05:37;42.20;40.80;35.20
57037;PMS5003;59942;49.304;8.256;2022-12-07T07:08:04;39.80;37.00;33.00
57037;PMS5003;59942;49.304;8.256;2022-12-07T07:10:47;37.20;35.00;33.00
57037;PMS5003;59942;49.304;8.256;2022-12-07T07:13:14;37.60;36.60;33.00
57037;PMS5003;59942;49.304;8.256;2022-12-07T07:15:41;38.60;36.80;33.80
57037;PMS5003;59942;49.304;8.256;2022-12-07T07:18:08;42.00;42.00;35.80
57037;PMS5003;59942;49.304;8.256;2022-12-07T07:20:35;36.00;36.00;33.00
57037;PMS5003;59942;49.304;8.256;2022-12-07T07:23:01;42.00;42.00;35.80
57037;PMS5003;59942;49.304;8.256;2022-12-07T07:25:28;44.20;41.60;36.40
57037;PMS5003;59942;49.304;8.256;2022-12-07T07:27:55;36.80;33.80;32.20
57037;PMS5003;59942;49.304;8.256;2022-12-07T07:30:22;44.40;42.20;36.00
57037;PMS5003;59942;49.304;8.256;2022-12-07T07:32:49;39.40;39.00;33.80
57037;PMS5003;59942;49.304;8.256;2022-12-07T07:35:16;45.20;44.60;38.20
57037;PMS5003;59942;49.304;8.256;2022-12-07T07:37:43;33.60;33.60;31.00
57037;PMS5003;59942;49.304;8.256;2022-12-07T07:40:10;32.20;32.20;30.60
57037;PMS5003;59942;49.304;8.256;2022-12-07T07:42:36;40.80;39.40;34.00
57037;PMS5003;59942;49.304;8.256;2022-12-07T07:45:03;47.20;39.40;34.00
57037;PMS5003;59942;49.304;8.256;2022-12-07T07:47:30;40.60;39.60;35.20
57037;PMS5003;59942;49.304;8.256;2022-12-07T07:49:57;49.80;47.20;39.60
57037;PMS5003;59942;49.304;8.256;2022-12-07T07:52:24;46.00;41.60;34.00
57037;PMS5003;59942;49.304;8.256;2022-12-07T07:54:51;40.60;38.20;34.00
57037;PMS5003;59942;49.304;8.256;2022-12-07T07:57:18;40.20;39.80;34.40
57037;PMS5003;59942;49.304;8.256;2022-12-07T07:59:45;45.00;43.80;37.00
57037;PMS5003;59942;49.304;8.256;2022-12-07T08:02:13;41.80;36.00;33.00
57037;PMS5003;59942;49.304;8.256;2022-12-07T08:04:41;38.00;38.00;34.00
57037;PMS5003;59942;49.304;8.256;2022-12-07T08:07:08;55.40;48.40;40.80
57037;PMS5003;59942;49.304;8.256;2022-12-07T08:09:35;46.60;43.00;36.20
57037;PMS5003;59942;49.304;8.256;2022-12-07T08:12:02;49.60;44.20;38.20
57037;PMS5003;59942;49.304;8.256;2022-12-07T08:14:29;37.60;37.00;33.40
57037;PMS5003;59942;49.304;8.256;2022-12-07T08:16:55;41.80;36.40;33.00
57037;PMS5003;59942;49.304;8.256;2022-12-07T08:19:22;37.40;37.40;33.40
57037;PMS5003;59942;49.304;8.256;2022-12-07T08:21:49;39.80;36.60;33.00
57037;PMS5003;59942;49.304;8.256;2022-12-07T08:24:16;41.40;41.40;35.60
57037;PMS5003;59942;49.304;8.256;2022-12-07T08:26:42;45.00;41.20;35.60
57037;PMS5003;59942;49.304;8.256;2022-12-07T08:29:09;44.60;40.00;34.80
57037;PMS5003;59942;49.304;8.256;2022-12-07T08:31:36;40.00;36.40;33.00
57037;PMS5003;59942;49.304;8.256;2022-12-07T08:34:04;44.80;39.80;33.40
57037;PMS5003;59942;49.304;8.256;2022-12-07T08:36:30;46.00;45.00;37.80
57037;PMS5003;59942;49.304;8.256;2022-12-07T08:38:57;40.20;40.00;34.40
57037;PMS5003;59942;49.304;8.256;2022-12-07T08:41:44;46.20;41.00;34.40
57037;PMS5003;59942;49.304;8.256;2022-12-07T08:44:10;49.80;44.60;37.40
57037;PMS5003;59942;49.304;8.256;2022-12-07T08:46:38;51.60;47.00;40.60
57037;PMS5003;59942;49.304;8.256;2022-12-07T08:49:27;42.00;37.40;34.00
57037;PMS5003;59942;49.304;8.256;2022-12-07T08:52:02;39.00;39.00;34.00
57037;PMS5003;59942;49.304;8.256;2022-12-07T08:54:31;42.60;40.80;34.80
57037;PMS5003;59942;49.304;8.256;2022-12-07T08:57:02;45.40;39.60;33.80
57037;PMS5003;59942;49.304;8.256;2022-12-07T08:59:30;47.20;45.60;39.00
57037;PMS5003;59942;49.304;8.256;2022-12-07T09:01:57;42.40;39.60;34.40
57037;PMS5003;59942;49.304;8.256;2022-12-07T09:04:24;46.40;39.00;34.00
57037;PMS5003;59942;49.304;8.256;2022-12-07T09:06:50;41.00;38.20;34.00
57037;PMS5003;59942;49.304;8.256;2022-12-07T09:09:17;41.20;37.40;33.80
57037;PMS5003;59942;49.304;8.256;2022-12-07T09:11:44;53.80;45.00;38.20
57037;PMS5003;59942;49.304;8.256;2022-12-07T09:14:11;43.20;41.00;35.20
57037;PMS5003;59942;49.304;8.256;2022-12-07T09:16:39;46.40;43.80;36.80
57037;PMS5003;59942;49.304;8.256;2022-12-07T09:19:06;40.00;39.60;34.80
57037;PMS5003;59942;49.304;8.256;2022-12-07T09:21:34;47.20;42.20;34.80
57037;PMS5003;59942;49.304;8.256;2022-12-07T09:24:00;47.00;45.20;36.00
57037;PMS5003;59942;49.304;8.256;2022-12-07T09:26:28;60.80;48.40;38.40
57037;PMS5003;59942;49.304;8.256;2022-12-07T09:28:54;53.20;48.00;39.00
57037;PMS5003;59942;49.304;8.256;2022-12-07T09:31:21;49.40;45.60;37.00
57037;PMS5003;59942;49.304;8.256;2022-12-07T09:34:00;47.00;44.80;36.80
57037;PMS5003;59942;49.304;8.256;2022-12-07T09:36:27;47.40;42.40;34.40
57037;PMS5003;59942;49.304;8.256;2022-12-07T09:38:55;42.20;42.20;36.00
57037;PMS5003;59942;49.304;8.256;2022-12-07T09:41:22;115.60;91.00;56.40
57037;PMS5003;59942;49.304;8.256;2022-12-07T09:43:52;324.25;239.00;112.50
57037;PMS5003;59942;49.304;8.256;2022-12-07T09:46:23;344.00;233.50;90.50
57037;PMS5003;59942;49.304;8.256;2022-12-07T09:48:50;183.75;139.50;71.00
57037;PMS5003;59942;49.304;8.256;2022-12-07T09:51:19;271.50;200.75;102.00
57037;PMS5003;59942;49.304;8.256;2022-12-07T09:53:51;225.25;167.00;88.50
57037;PMS5003;59942;49.304;8.256;2022-12-07T09:56:20;45.00;41.20;35.40
57037;PMS5003;59942;49.304;8.256;2022-12-07T09:58:48;52.00;46.40;36.40
57037;PMS5003;59942;49.304;8.256;2022-12-07T10:01:18;59.80;50.40;41.60
57037;PMS5003;59942;49.304;8.256;2022-12-07T10:03:51;46.00;43.00;36.00
57037;PMS5003;59942;49.304;8.256;2022-12-07T10:06:21;47.00;43.40;36.20
57037;PMS5003;59942;49.304;8.256;2022-12-07T10:08:49;51.60;46.00;37.20
57037;PMS5003;59942;49.304;8.256;2022-12-07T10:11:16;58.40;50.60;42.40
57037;PMS5003;59942;49.304;8.256;2022-12-07T10:13:44;43.80;39.40;34.20
57037;PMS5003;59942;49.304;8.256;2022-12-07T10:18:54;48.00;42.40;36.00
57037;PMS5003;59942;49.304;8.256;2022-12-07T10:21:25;56.60;48.40;40.60
57037;PMS5003;59942;49.304;8.256;2022-12-07T10:24:02;45.80;41.60;35.60
57037;PMS5003;59942;49.304;8.256;2022-12-07T10:29:17;50.60;46.20;39.00
57037;PMS5003;59942;49.304;8.256;2022-12-07T10:31:54;47.20;43.60;37.40
57037;PMS5003;59942;49.304;8.256;2022-12-07T10:34:25;57.20;49.60;41.40
57037;PMS5003;59942;49.304;8.256;2022-12-07T10:37:21;54.20;46.00;39.00
57037;PMS5003;59942;49.304;8.256;2022-12-07T10:39:52;50.00;46.40;39.00
57037;PMS5003;59942;49.304;8.256;2022-12-07T10:42:24;41.60;41.20;34.40
57037;PMS5003;59942;49.304;8.256;2022-12-07T10:50:55;40.80;40.80;36.00
57037;PMS5003;59942;49.304;8.256;2022-12-07T10:53:32;41.80;41.60;35.60
57037;PMS5003;59942;49.304;8.256;2022-12-07T11:01:41;87.40;68.60;51.20
57037;PMS5003;59942;49.304;8.256;2022-12-07T11:04:29;48.40;45.20;36.60
57037;PMS5003;59942;49.304;8.256;2022-12-07T11:12:39;64.00;52.00;42.00
57037;PMS5003;59942;49.304;8.256;2022-12-07T11:20:35;50.00;43.00;36.00
57037;PMS5003;59942;49.304;8.256;2022-12-07T11:23:21;49.00;45.00;39.00
57037;PMS5003;59942;49.304;8.256;2022-12-07T11:34:08;56.00;51.20;42.80
57037;PMS5003;59942;49.304;8.256;2022-12-07T11:36:54;46.40;44.80;38.00
57037;PMS5003;59942;49.304;8.256;2022-12-07T11:39:44;43.40;40.00;35.20
57037;PMS5003;59942;49.304;8.256;2022-12-07T11:47:47;36.80;36.80;33.20
57037;PMS5003;59942;49.304;8.256;2022-12-07T11:52:51;34.60;34.60;32.20
57037;PMS5003;59942;49.304;8.256;2022-12-07T11:55:38;34.40;34.40;33.00
57037;PMS5003;59942;49.304;8.256;2022-12-07T12:00:56;43.00;40.60;35.40
57037;PMS5003;59942;49.304;8.256;2022-12-07T12:03:44;42.40;42.40;36.40
57037;PMS5003;59942;49.304;8.256;2022-12-07T12:06:18;44.00;40.60;34.40
57037;PMS5003;59942;49.304;8.256;2022-12-07T12:17:54;39.60;39.60;34.80
57037;PMS5003;59942;49.304;8.256;2022-12-07T12:20:48;52.20;48.00;40.60
57037;PMS5003;59942;49.304;8.256;2022-12-07T12:23:23;49.20;46.40;39.60
57037;PMS5003;59942;49.304;8.256;2022-12-07T12:26:01;39.20;34.80;33.00
57037;PMS5003;59942;49.304;8.256;2022-12-07T12:28:35;39.60;37.80;34.00
57037;PMS5003;59942;49.304;8.256;2022-12-07T12:33:52;42.80;42.80;36.20
57037;PMS5003;59942;49.304;8.256;2022-12-07T12:41:59;41.60;39.20;34.00
57037;PMS5003;59942;49.304;8.256;2022-12-07T12:46:59;40.20;40.20;35.40
57037;PMS5003;59942;49.304;8.256;2022-12-07T12:51:58;41.00;39.80;34.40
57037;PMS5003;59942;49.304;8.256;2022-12-07T12:54:33;44.20;43.00;36.80
57037;PMS5003;59942;49.304;8.256;2022-12-07T13:18:41;49.00;46.00;39.60
57037;PMS5003;59942;49.304;8.256;2022-12-07T13:26:21;42.80;37.80;34.00
57037;PMS5003;59942;49.304;8.256;2022-12-07T13:31:23;53.40;48.40;41.20
57037;PMS5003;59942;49.304;8.256;2022-12-07T13:33:56;44.60;44.20;37.60
57037;PMS5003;59942;49.304;8.256;2022-12-07T13:36:24;40.60;39.00;34.00
57037;PMS5003;59942;49.304;8.256;2022-12-07T13:38:56;39.80;38.40;34.20
57037;PMS5003;59942;49.304;8.256;2022-12-07T13:41:27;39.60;38.20;34.00
57037;PMS5003;59942;49.304;8.256;2022-12-07T13:44:03;38.40;37.80;34.00
57037;PMS5003;59942;49.304;8.256;2022-12-07T13:46:57;51.40;47.00;39.60
57037;PMS5003;59942;49.304;8.256;2022-12-07T13:49:29;50.00;45.40;39.00
57037;PMS5003;59942;49.304;8.256;2022-12-07T13:52:13;33.40;33.40;31.80
57037;PMS5003;59942;49.304;8.256;2022-12-07T13:54:45;35.60;35.60;33.00
57037;PMS5003;59942;49.304;8.256;2022-12-07T13:57:22;39.60;39.60;34.20
57037;PMS5003;59942;49.304;8.256;2022-12-07T13:59:51;41.00;39.00;34.00
57037;PMS5003;59942;49.304;8.256;2022-12-07T14:02:24;36.20;36.20;33.20
57037;PMS5003;59942;49.304;8.256;2022-12-07T14:10:27;40.20;40.20;34.80
57037;PMS5003;59942;49.304;8.256;2022-12-07T14:12:59;33.00;33.00;31.60
57037;PMS5003;59942;49.304;8.256;2022-12-07T14:15:31;49.20;46.60;40.00
57037;PMS5003;59942;49.304;8.256;2022-12-07T14:18:01;51.40;48.40;41.20
57037;PMS5003;59942;49.304;8.256;2022-12-07T14:23:00;37.40;36.80;33.60
57037;PMS5003;59942;49.304;8.256;2022-12-07T14:25:45;39.00;39.00;34.00
57037;PMS5003;59942;49.304;8.256;2022-12-07T14:28:30;41.20;41.20;35.80
57037;PMS5003;59942;49.304;8.256;2022-12-07T14:30:58;45.00;42.80;36.00
57037;PMS5003;59942;49.304;8.256;2022-12-07T14:33:26;40.60;39.80;34.00
57037;PMS5003;59942;49.304;8.256;2022-12-07T14:35:54;41.20;40.00;35.60
57037;PMS5003;59942;49.304;8.256;2022-12-07T14:38:24;48.60;47.20;39.00
57037;PMS5003;59942;49.304;8.256;2022-12-07T14:40:52;43.20;43.00;36.80
57037;PMS5003;59942;49.304;8.256;2022-12-07T14:43:20;42.20;40.40;34.80
57037;PMS5003;59942;49.304;8.256;2022-12-07T14:45:47;46.20;44.20;36.80
57037;PMS5003;59942;49.304;8.256;2022-12-07T14:48:14;41.40;39.60;34.00
57037;PMS5003;59942;49.304;8.256;2022-12-07T14:51:02;47.80;45.80;38.40
57037;PMS5003;59942;49.304;8.256;2022-12-07T14:53:50;44.20;43.00;36.80
57037;PMS5003;59942;49.304;8.256;2022-12-07T14:56:23;43.60;42.00;36.40
57037;PMS5003;59942;49.304;8.256;2022-12-07T14:58:50;39.00;39.00;34.00
57037;PMS5003;59942;49.304;8.256;2022-12-07T15:01:17;42.00;41.20;35.20
57037;PMS5003;59942;49.304;8.256;2022-12-07T15:03:44;49.60;45.00;37.20
57037;PMS5003;59942;49.304;8.256;2022-12-07T15:06:13;37.40;37.40;33.60
57037;PMS5003;59942;49.304;8.256;2022-12-07T15:08:42;36.40;36.40;33.20
57037;PMS5003;59942;49.304;8.256;2022-12-07T15:11:14;37.20;36.20;33.20
57037;PMS5003;59942;49.304;8.256;2022-12-07T15:13:42;47.80;45.80;39.00
57037;PMS5003;59942;49.304;8.256;2022-12-07T15:16:27;43.20;43.00;37.40
57037;PMS5003;59942;49.304;8.256;2022-12-07T15:19:15;45.60;43.40;36.80
57037;PMS5003;59942;49.304;8.256;2022-12-07T15:21:55;34.40;33.00;31.60
57037;PMS5003;59942;49.304;8.256;2022-12-07T15:24:23;55.20;49.00;41.20
57037;PMS5003;59942;49.304;8.256;2022-12-07T15:26:50;37.40;37.00;33.60
57037;PMS5003;59942;49.304;8.256;2022-12-07T15:29:17;37.80;37.80;34.00
57037;PMS5003;59942;49.304;8.256;2022-12-07T15:31:50;43.80;43.60;37.60
57037;PMS5003;59942;49.304;8.256;2022-12-07T15:34:23;46.60;44.20;38.20
57037;PMS5003;59942;49.304;8.256;2022-12-07T15:36:51;43.00;40.00;34.60
57037;PMS5003;59942;49.304;8.256;2022-12-07T15:39:18;37.00;37.00;34.00
57037;PMS5003;59942;49.304;8.256;2022-12-07T15:41:45;46.80;45.40;38.20
57037;PMS5003;59942;49.304;8.256;2022-12-07T15:44:12;41.20;39.80;34.00
57037;PMS5003;59942;49.304;8.256;2022-12-07T15:46:58;51.80;48.20;40.80
57037;PMS5003;59942;49.304;8.256;2022-12-07T15:49:25;40.60;40.00;34.80
57037;PMS5003;59942;49.304;8.256;2022-12-07T15:51:53;41.00;39.80;34.00
57037;PMS5003;59942;49.304;8.256;2022-12-07T15:56:52;41.20;40.60;34.80
57037;PMS5003;59942;49.304;8.256;2022-12-07T15:59:19;81.40;57.80;44.60
57037;PMS5003;59942;49.304;8.256;2022-12-07T16:01:46;69.80;55.80;42.20
57037;PMS5003;59942;49.304;8.256;2022-12-07T16:04:13;66.40;54.80;45.00
57037;PMS5003;59942;49.304;8.256;2022-12-07T16:06:40;50.40;43.00;36.00
57037;PMS5003;59942;49.304;8.256;2022-12-07T16:09:07;65.00;54.80;42.00
57037;PMS5003;59942;49.304;8.256;2022-12-07T16:11:34;60.00;51.40;40.00
57037;PMS5003;59942;49.304;8.256;2022-12-07T16:14:01;50.60;45.00;36.00
57037;PMS5003;59942;49.304;8.256;2022-12-07T16:16:28;51.80;45.60;37.00
57037;PMS5003;59942;49.304;8.256;2022-12-07T16:18:55;67.60;57.20;44.20
57037;PMS5003;59942;49.304;8.256;2022-12-07T16:21:23;55.60;49.60;40.60
57037;PMS5003;59942;49.304;8.256;2022-12-07T16:23:51;53.40;44.20;36.60
57037;PMS5003;59942;49.304;8.256;2022-12-07T16:26:19;45.80;40.80;36.00
57037;PMS5003;59942;49.304;8.256;2022-12-07T16:28:51;44.60;40.00;36.00
57037;PMS5003;59942;49.304;8.256;2022-12-07T16:31:20;48.60;45.60;37.00
57037;PMS5003;59942;49.304;8.256;2022-12-07T16:33:49;49.00;43.40;36.20
57037;PMS5003;59942;49.304;8.256;2022-12-07T16:36:17;46.40;44.60;36.00
57037;PMS5003;59942;49.304;8.256;2022-12-07T16:39:05;41.60;39.40;34.40
57037;PMS5003;59942;49.304;8.256;2022-12-07T16:41:32;44.80;44.60;36.40
57037;PMS5003;59942;49.304;8.256;2022-12-07T16:44:03;45.80;39.80;34.80